createdAt,value
2019-02-17T00:00:58.830Z,171.57
2019-02-17T00:03:49.866Z,158.97
2019-02-17T00:06:38.819Z,148.70
2019-02-17T00:09:31.642Z,155.13
2019-02-17T00:12:20.953Z,130.83
2019-02-17T00:15:10.446Z,101.60
2019-02-17T00:18:03.215Z,160.57
2019-02-17T00:20:53.350Z,133.30
2019-02-17T00:23:43.301Z,106.97
2019-02-17T00:26:35.662Z,107.10
2019-02-17T00:29:25.653Z,71.93
2019-02-17T00:32:14.900Z,164.33
2019-02-17T00:35:05.008Z,71.87
2019-02-17T00:37:54.463Z,48.07
2019-02-17T00:40:44.019Z,80.67
2019-02-17T00:43:33.350Z,126.07
2019-02-17T00:46:23.287Z,78.07
2019-02-17T00:49:12.303Z,55.70
2019-02-17T00:52:03.403Z,44.27
2019-02-17T00:54:52.613Z,46.93
2019-02-17T00:57:42.252Z,53.17
2019-02-17T01:00:31.000Z,64.53
2019-02-17T01:03:20.306Z,72.37
2019-02-17T01:06:09.623Z,76.27
2019-02-17T01:09:00.759Z,69.40
2019-02-17T01:11:49.995Z,87.50
2019-02-17T01:14:38.868Z,110.27
2019-02-17T01:17:28.473Z,60.33
2019-02-17T01:20:18.021Z,55.30
2019-02-17T01:23:07.425Z,54.57
2019-02-17T01:25:57.271Z,52.53
2019-02-17T01:28:46.980Z,57.83
2019-02-17T01:31:36.574Z,56.17
2019-02-17T01:34:25.868Z,67.33
2019-02-17T01:37:15.221Z,39.97
2019-02-17T01:40:04.702Z,44.93
2019-02-17T01:42:54.069Z,47.60
2019-02-17T01:45:43.511Z,53.43
2019-02-17T01:48:32.723Z,52.80
2019-02-17T01:51:22.272Z,47.10
2019-02-17T01:54:11.961Z,63.83
2019-02-17T01:57:01.462Z,61.73
2019-02-17T01:59:50.381Z,57.47
2019-02-17T02:02:39.119Z,58.73
2019-02-17T02:05:28.416Z,69.63
2019-02-17T02:08:18.260Z,73.03
2019-02-17T02:11:07.364Z,63.13
2019-02-17T02:13:56.720Z,70.83
2019-02-17T02:16:45.588Z,75.17
2019-02-17T02:19:35.083Z,69.83
2019-02-17T02:22:23.962Z,76.70
2019-02-17T02:25:13.316Z,62.93
2019-02-17T02:28:02.583Z,62.97
2019-02-17T02:30:51.830Z,60.10
2019-02-17T02:33:40.737Z,62.30
2019-02-17T02:36:30.216Z,86.00
2019-02-17T02:39:19.338Z,92.80
2019-02-17T02:42:08.848Z,81.73
2019-02-17T02:44:58.504Z,83.97
2019-02-17T02:47:47.510Z,78.53
2019-02-17T02:50:37.185Z,62.43
2019-02-17T02:53:26.646Z,40.13
2019-02-17T02:56:16.003Z,49.13
2019-02-17T02:59:05.428Z,59.30
2019-02-17T03:01:54.387Z,59.63
2019-02-17T03:04:43.100Z,49.37
2019-02-17T03:07:32.490Z,49.67
2019-02-17T03:10:22.276Z,43.20
2019-02-17T03:13:11.401Z,53.57
2019-02-17T03:16:00.639Z,60.23
2019-02-17T03:18:49.558Z,50.67
2019-02-17T03:21:38.925Z,60.93
2019-02-17T03:24:28.153Z,57.30
2019-02-17T03:27:17.825Z,90.03
2019-02-17T03:30:08.222Z,99.77
2019-02-17T03:32:57.365Z,128.23
2019-02-17T03:35:46.975Z,168.43
2019-02-17T03:38:36.294Z,163.50
2019-02-17T03:41:25.708Z,186.73
2019-02-17T03:44:14.962Z,135.23
2019-02-17T03:47:04.483Z,141.90
2019-02-17T03:49:53.748Z,99.53
2019-02-17T03:52:43.423Z,102.37
2019-02-17T03:55:32.595Z,67.80
2019-02-17T03:58:21.840Z,59.03
2019-02-17T04:01:11.141Z,71.57
2019-02-17T04:04:00.749Z,155.00
2019-02-17T04:06:49.816Z,310.90
2019-02-17T04:09:39.460Z,330.20
2019-02-17T04:12:28.158Z,282.30
2019-02-17T04:15:17.233Z,172.47
2019-02-17T04:18:06.476Z,73.17
2019-02-17T04:20:56.253Z,206.20
2019-02-17T04:23:45.572Z,144.10
2019-02-17T04:26:34.432Z,106.80
2019-02-17T04:29:23.721Z,98.50
2019-02-17T04:32:13.048Z,105.00
2019-02-17T04:35:02.297Z,95.33
2019-02-17T04:37:51.632Z,66.23
2019-02-17T04:40:41.294Z,59.20
2019-02-17T04:43:30.699Z,63.63
2019-02-17T04:46:19.658Z,65.80
2019-02-17T04:49:09.246Z,180.70
2019-02-17T04:51:58.048Z,168.67
2019-02-17T04:54:47.323Z,100.70
2019-02-17T04:57:36.991Z,118.57
2019-02-17T05:00:25.986Z,102.20
2019-02-17T05:03:15.614Z,112.13
2019-02-17T05:06:05.250Z,117.80
2019-02-17T05:08:54.515Z,103.47
2019-02-17T05:11:44.242Z,117.87
2019-02-17T05:14:33.885Z,138.43
2019-02-17T05:17:24.603Z,134.27
2019-02-17T05:20:13.869Z,187.50
2019-02-17T05:23:02.961Z,111.57
2019-02-17T05:25:52.070Z,88.53
2019-02-17T05:28:41.695Z,131.33
2019-02-17T05:31:31.125Z,130.77
2019-02-17T05:34:20.353Z,117.43
2019-02-17T05:37:09.859Z,113.67
2019-02-17T05:40:01.324Z,139.90
2019-02-17T05:42:50.921Z,105.53
2019-02-17T05:45:40.663Z,114.90
2019-02-17T05:48:30.009Z,107.77
2019-02-17T05:51:20.065Z,100.85
2019-02-17T05:54:08.847Z,156.97
2019-02-17T05:56:58.165Z,177.47
2019-02-17T05:59:47.439Z,108.53
2019-02-17T06:02:36.552Z,103.93
2019-02-17T06:05:25.877Z,83.30
2019-02-17T06:08:15.347Z,76.07
2019-02-17T06:11:04.866Z,111.43
2019-02-17T06:13:53.707Z,76.73
2019-02-17T06:16:43.120Z,90.10
2019-02-17T06:19:32.871Z,154.00
2019-02-17T06:22:22.105Z,246.43
2019-02-17T06:25:11.397Z,271.37
2019-02-17T06:28:00.307Z,191.37
2019-02-17T06:30:50.876Z,155.93
2019-02-17T06:33:39.638Z,133.57
2019-02-17T06:36:28.995Z,107.93
2019-02-17T06:39:18.511Z,207.97
2019-02-17T06:42:07.981Z,147.63
2019-02-17T06:44:58.060Z,207.33
2019-02-17T06:47:46.995Z,132.67
2019-02-17T06:50:36.363Z,133.30
2019-02-17T06:53:25.186Z,120.00
2019-02-17T06:56:21.394Z,118.43
2019-02-17T06:59:11.012Z,155.20
2019-02-17T07:02:00.601Z,141.30
2019-02-17T07:05:21.835Z,163.43
2019-02-17T07:08:15.900Z,97.60
2019-02-17T07:11:04.918Z,105.67
2019-02-17T07:13:54.188Z,98.77
2019-02-17T07:16:43.875Z,92.07
2019-02-17T07:19:33.082Z,95.07
2019-02-17T07:22:22.355Z,99.73
2019-02-17T07:25:11.568Z,139.23
2019-02-17T07:28:00.872Z,103.13
2019-02-17T07:30:50.269Z,161.03
2019-02-17T07:33:42.308Z,162.30
2019-02-17T07:36:32.957Z,191.43
2019-02-17T07:39:22.448Z,158.43
2019-02-17T07:42:11.881Z,137.70
2019-02-17T07:45:01.176Z,165.87
2019-02-17T07:47:50.491Z,129.53
2019-02-17T07:50:39.364Z,116.87
2019-02-17T07:53:28.638Z,107.03
2019-02-17T07:56:17.702Z,128.50
2019-02-17T07:59:06.930Z,128.10
2019-02-17T08:01:56.282Z,141.93
2019-02-17T08:04:50.494Z,90.97
2019-02-17T08:07:39.806Z,113.97
2019-02-17T08:10:28.822Z,113.00
2019-02-17T08:13:18.268Z,79.63
2019-02-17T08:16:07.937Z,80.83
2019-02-17T08:18:57.235Z,63.17
2019-02-17T08:21:46.129Z,52.77
2019-02-17T08:24:35.444Z,61.57
2019-02-17T08:27:28.218Z,58.17
2019-02-17T08:30:17.112Z,71.97
2019-02-17T08:33:06.657Z,52.33
2019-02-17T08:35:55.516Z,77.70
2019-02-17T08:38:44.816Z,52.13
2019-02-17T08:41:34.495Z,55.40
2019-02-17T08:44:27.219Z,52.67
2019-02-17T08:47:16.715Z,46.63
2019-02-17T08:50:08.557Z,44.50
2019-02-17T08:52:58.307Z,23.50
2019-02-17T08:55:47.338Z,33.57
2019-02-17T08:58:37.104Z,25.53
2019-02-17T09:01:26.600Z,33.73
2019-02-17T09:04:16.305Z,35.43
2019-02-17T09:07:06.460Z,30.43
2019-02-17T09:09:56.383Z,39.03
2019-02-17T09:12:51.214Z,35.50
2019-02-17T09:15:40.726Z,38.00
2019-02-17T09:18:29.902Z,40.33
2019-02-17T09:21:18.792Z,39.53
2019-02-17T09:24:08.630Z,36.53
2019-02-17T09:26:57.950Z,34.13
2019-02-17T09:29:47.224Z,49.77
2019-02-17T09:32:37.088Z,44.93
2019-02-17T09:35:26.574Z,47.27
2019-02-17T09:38:17.202Z,52.87
2019-02-17T09:41:06.249Z,54.00
2019-02-17T09:43:55.429Z,55.27
2019-02-17T09:46:44.774Z,51.20
2019-02-17T09:49:34.213Z,60.67
2019-02-17T09:52:25.567Z,48.43
2019-02-17T09:55:15.615Z,49.37
2019-02-17T10:01:13.642Z,75.37
2019-02-17T10:04:03.237Z,53.00
2019-02-17T10:06:52.887Z,58.33
2019-02-17T10:09:42.769Z,106.30
2019-02-17T10:12:32.820Z,46.97
2019-02-17T10:15:22.975Z,31.33
2019-02-17T10:18:12.784Z,41.17
2019-02-17T10:21:01.644Z,34.07
2019-02-17T10:23:50.467Z,48.07
2019-02-17T10:26:41.114Z,46.20
2019-02-17T10:29:29.951Z,51.13
2019-02-17T10:32:19.236Z,40.57
2019-02-17T10:35:09.901Z,25.33
2019-02-17T10:37:59.027Z,34.97
2019-02-17T10:40:47.939Z,42.30
2019-02-17T10:43:37.193Z,45.40
2019-02-17T10:46:27.490Z,54.33
2019-02-17T10:49:16.828Z,38.43
2019-02-17T10:52:05.907Z,37.33
2019-02-17T10:54:55.422Z,40.80
2019-02-17T10:57:44.516Z,37.53
2019-02-17T11:00:33.755Z,26.40
2019-02-17T11:03:23.084Z,21.67
2019-02-17T11:06:12.619Z,26.67
2019-02-17T11:09:01.335Z,23.20
2019-02-17T11:11:50.968Z,31.97
2019-02-17T11:14:40.577Z,22.57
2019-02-17T11:17:29.749Z,33.03
2019-02-17T11:20:19.076Z,30.03
2019-02-17T11:23:08.404Z,24.03
2019-02-17T11:25:57.641Z,22.43
2019-02-17T11:28:47.424Z,26.37
2019-02-17T11:31:36.806Z,20.47
2019-02-17T11:34:26.280Z,18.13
2019-02-17T11:37:15.456Z,24.83
2019-02-17T11:40:05.191Z,27.80
2019-02-17T11:42:54.836Z,67.80
2019-02-17T11:45:44.384Z,40.33
2019-02-17T11:48:33.986Z,21.40
2019-02-17T11:51:23.419Z,28.17
2019-02-17T11:54:12.441Z,37.37
2019-02-17T11:57:01.734Z,26.50
2019-02-17T11:59:50.648Z,25.57
2019-02-17T12:02:39.930Z,29.87
2019-02-17T12:05:29.412Z,27.53
2019-02-17T12:08:18.780Z,34.67
2019-02-17T12:11:08.303Z,154.67
2019-02-17T12:13:57.576Z,55.57
2019-02-17T12:16:46.706Z,349.43
2019-02-17T12:19:35.984Z,124.90
2019-02-17T12:22:30.436Z,26.00
2019-02-17T12:25:28.393Z,24.43
2019-02-17T12:28:25.335Z,28.07
2019-02-17T12:31:22.169Z,118.10
2019-02-17T12:34:11.881Z,65.57
2019-02-17T12:37:01.188Z,35.03
2019-02-17T12:39:50.663Z,21.80
2019-02-17T12:42:39.936Z,23.67
2019-02-17T12:45:29.393Z,15.90
2019-02-17T12:48:18.639Z,25.90
2019-02-17T12:51:07.666Z,27.13
2019-02-17T12:53:57.634Z,24.20
2019-02-17T12:56:47.115Z,25.23
2019-02-17T12:59:36.394Z,50.10
2019-02-17T13:02:25.720Z,47.53
2019-02-17T13:05:15.220Z,22.83
2019-02-17T13:08:04.217Z,27.43
2019-02-17T13:10:52.935Z,23.57
2019-02-17T13:13:42.466Z,29.33
2019-02-17T13:16:31.730Z,19.30
2019-02-17T13:19:21.092Z,19.93
2019-02-17T13:22:10.605Z,16.70
2019-02-17T13:24:59.931Z,18.30
2019-02-17T13:27:49.201Z,8.83
2019-02-17T13:30:38.615Z,20.00
2019-02-17T13:33:38.891Z,23.03
2019-02-17T13:36:24.846Z,12.30
2019-02-17T13:39:14.400Z,23.20
2019-02-17T13:42:03.915Z,29.70
2019-02-17T13:44:52.860Z,28.77
2019-02-17T13:47:44.441Z,31.63
2019-02-17T13:50:33.575Z,29.07
2019-02-17T13:53:23.185Z,33.43
2019-02-17T13:56:13.089Z,31.27
2019-02-17T13:59:02.530Z,39.33
2019-02-17T14:01:52.309Z,181.37
2019-02-17T14:04:45.021Z,52.70
2019-02-17T14:07:40.244Z,83.37
2019-02-17T14:10:30.171Z,87.80
2019-02-17T14:13:19.821Z,54.87
2019-02-17T14:16:11.713Z,29.33
2019-02-17T14:19:03.611Z,31.60
2019-02-17T14:22:00.786Z,22.90
2019-02-17T14:24:50.852Z,21.83
2019-02-17T14:27:40.863Z,18.37
2019-02-17T14:30:30.571Z,21.10
2019-02-17T14:33:19.260Z,23.70
2019-02-17T14:36:08.547Z,37.13
2019-02-17T14:38:57.905Z,56.13
2019-02-17T14:41:47.082Z,39.97
2019-02-17T14:44:36.082Z,49.97
2019-02-17T14:47:25.674Z,72.93
2019-02-17T14:50:15.148Z,84.37
2019-02-17T14:53:04.488Z,118.53
2019-02-17T14:55:53.884Z,363.60
2019-02-17T14:58:43.282Z,215.20
2019-02-17T15:01:34.767Z,101.70
2019-02-17T15:04:24.029Z,114.63
2019-02-17T15:07:13.311Z,134.00
2019-02-17T15:10:02.626Z,119.20
2019-02-17T15:12:51.669Z,111.10
2019-02-17T15:15:40.976Z,126.53
2019-02-17T15:18:30.374Z,169.83
2019-02-17T15:21:19.972Z,165.10
2019-02-17T15:24:09.358Z,181.87
2019-02-17T15:26:58.627Z,205.63
2019-02-17T15:29:47.502Z,190.37
2019-02-17T15:32:36.853Z,202.63
2019-02-17T15:35:26.276Z,216.57
2019-02-17T15:38:14.879Z,278.67
2019-02-17T15:41:04.363Z,235.30
2019-02-17T15:43:53.516Z,258.53
2019-02-17T15:46:42.796Z,240.03
2019-02-17T15:49:32.095Z,764.43
2019-02-17T15:52:21.261Z,570.17
2019-02-17T15:55:10.527Z,460.93
2019-02-17T15:58:00.760Z,404.23
2019-02-17T16:00:50.303Z,257.07
2019-02-17T16:03:40.135Z,164.80
2019-02-17T16:06:29.368Z,172.80
2019-02-17T16:09:03.135Z,96.27
2019-02-17T16:11:33.187Z,46.00
2019-02-17T16:14:04.085Z,43.30
2019-02-17T16:16:35.082Z,52.10
2019-02-17T16:19:05.990Z,93.50
2019-02-17T16:21:36.946Z,106.40
2019-02-17T16:24:08.040Z,86.50
2019-02-17T16:26:39.121Z,114.03
2019-02-17T16:29:10.015Z,209.50
2019-02-17T16:31:40.956Z,173.37
2019-02-17T16:34:11.844Z,161.77
2019-02-17T16:36:42.825Z,173.23
2019-02-17T16:39:14.074Z,172.57
2019-02-17T16:41:45.033Z,178.53
2019-02-17T16:44:16.272Z,153.83
2019-02-17T16:46:47.672Z,126.13
2019-02-17T16:49:18.598Z,213.97
2019-02-17T16:51:49.487Z,262.80
2019-02-17T16:54:20.687Z,129.63
2019-02-17T16:56:51.554Z,98.47
2019-02-17T16:59:22.534Z,159.93
2019-02-17T17:01:53.642Z,135.90
2019-02-17T17:04:24.522Z,63.70
2019-02-17T17:06:55.462Z,52.83
2019-02-17T17:09:26.592Z,89.03
2019-02-17T17:11:57.525Z,43.37
2019-02-17T17:14:28.435Z,94.93
2019-02-17T17:16:59.605Z,85.23
2019-02-17T17:19:30.518Z,106.30
2019-02-17T17:22:01.438Z,231.17
2019-02-17T17:24:32.308Z,150.77
2019-02-17T17:27:03.257Z,154.57
2019-02-17T17:29:34.286Z,116.00
2019-02-17T17:32:05.183Z,126.67
2019-02-17T17:34:36.069Z,115.83
2019-02-17T17:37:07.091Z,99.90
2019-02-17T17:39:37.964Z,156.53
2019-02-17T17:42:08.831Z,153.87
2019-02-17T17:44:39.789Z,182.67
2019-02-17T17:47:11.427Z,251.70
2019-02-17T17:49:45.133Z,251.53
2019-02-17T17:52:16.295Z,179.53
2019-02-17T17:54:47.165Z,144.20
2019-02-17T17:57:18.044Z,181.50
2019-02-17T17:59:49.028Z,149.67
2019-02-17T18:02:19.967Z,162.17
2019-02-17T18:04:50.966Z,176.47
2019-02-17T18:07:21.934Z,189.73
2019-02-17T18:09:55.102Z,292.73
2019-02-17T18:12:26.007Z,298.87
2019-02-17T18:14:57.026Z,294.80
2019-02-17T18:17:27.965Z,308.13
2019-02-17T18:19:58.860Z,260.30
2019-02-17T18:22:29.837Z,180.83
2019-02-17T18:25:00.797Z,127.23
2019-02-17T18:27:31.763Z,177.17
2019-02-17T18:30:02.857Z,151.10
2019-02-17T18:32:33.779Z,104.70
2019-02-17T18:35:04.767Z,159.03
2019-02-17T18:37:35.814Z,49.37
2019-02-17T18:40:07.363Z,58.37
2019-02-17T18:42:38.287Z,104.10
2019-02-17T18:45:10.663Z,48.57
2019-02-17T18:47:41.789Z,64.73
2019-02-17T18:50:14.458Z,156.80
2019-02-17T18:52:45.457Z,57.27
2019-02-17T18:55:16.468Z,61.67
2019-02-17T18:57:50.681Z,86.20
2019-02-17T19:00:20.099Z,247.37
2019-02-17T19:02:51.071Z,189.93
2019-02-17T19:05:31.511Z,292.93
2019-02-17T19:07:54.654Z,350.40
2019-02-17T19:10:25.569Z,339.73
2019-02-17T19:12:56.535Z,220.47
2019-02-17T19:15:27.451Z,119.10
2019-02-17T19:17:58.350Z,73.47
2019-02-17T19:20:29.749Z,75.77
2019-02-17T19:23:00.809Z,150.00
2019-02-17T19:25:31.820Z,123.63
2019-02-17T19:28:03.780Z,258.70
2019-02-17T19:30:34.837Z,78.93
2019-02-17T19:33:05.877Z,94.60
2019-02-17T19:35:41.929Z,88.87
2019-02-17T19:38:09.807Z,70.77
2019-02-17T19:40:40.686Z,84.87
2019-02-17T19:43:11.575Z,93.77
2019-02-17T19:45:42.566Z,92.43
2019-02-17T19:48:13.515Z,72.00
2019-02-17T19:50:44.422Z,152.07
2019-02-17T19:53:15.639Z,81.50
2019-02-17T19:55:46.680Z,84.90
2019-02-17T19:58:17.545Z,89.73
2019-02-17T20:00:48.594Z,101.87
2019-02-17T20:03:54.258Z,76.60
2019-02-17T20:06:26.609Z,93.53
2019-02-17T20:08:57.591Z,109.33
2019-02-17T20:11:28.732Z,130.40
2019-02-17T20:13:59.610Z,162.17
2019-02-17T20:16:30.998Z,177.73
2019-02-17T20:19:01.970Z,181.83
2019-02-17T20:21:32.926Z,140.00
2019-02-17T20:24:04.019Z,104.20
2019-02-17T20:26:34.942Z,202.07
2019-02-17T20:29:05.864Z,108.60
2019-02-17T20:31:36.918Z,125.67
2019-02-17T20:34:08.125Z,229.13
2019-02-17T20:36:39.027Z,160.83
2019-02-17T20:39:10.643Z,279.73
2019-02-17T20:41:41.634Z,132.73
2019-02-17T20:44:12.759Z,62.90
2019-02-17T20:46:43.732Z,57.57
2019-02-17T20:49:14.603Z,62.67
2019-02-17T20:51:45.488Z,75.40
2019-02-17T20:54:16.439Z,74.50
2019-02-17T20:56:47.366Z,68.53
2019-02-17T20:59:36.650Z,75.93
2019-02-17T21:02:26.371Z,81.13
2019-02-17T21:05:15.726Z,92.53
2019-02-17T21:08:05.072Z,66.30
2019-02-17T21:10:54.497Z,52.37
2019-02-17T21:13:45.604Z,52.43
2019-02-17T21:16:35.208Z,46.87
2019-02-17T21:19:30.618Z,53.57
2019-02-17T21:22:23.823Z,73.23
2019-02-17T21:25:20.731Z,72.43
2019-02-17T21:28:18.346Z,60.70
2019-02-17T21:31:11.101Z,65.10
2019-02-17T21:34:03.736Z,62.63
2019-02-17T21:36:53.347Z,66.07
2019-02-17T21:39:43.979Z,119.43
2019-02-17T21:42:33.364Z,77.17
2019-02-17T21:45:23.279Z,76.77
2019-02-17T21:48:12.667Z,66.87
2019-02-17T21:51:02.118Z,57.07
2019-02-17T21:53:51.578Z,77.23
2019-02-17T21:56:40.955Z,64.50
2019-02-17T21:59:32.195Z,52.80
2019-02-17T22:02:22.154Z,57.17
2019-02-17T22:05:11.448Z,54.50
2019-02-17T22:08:00.938Z,27.20
2019-02-17T22:10:50.188Z,23.37
2019-02-17T22:13:39.761Z,20.20
2019-02-17T22:16:29.306Z,20.77
2019-02-17T22:19:23.496Z,17.20
2019-02-17T22:22:12.941Z,30.53
2019-02-17T22:25:01.882Z,47.43
2019-02-17T22:27:51.320Z,31.30
2019-02-17T22:30:41.159Z,48.13
2019-02-17T22:33:30.401Z,62.97
2019-02-17T22:36:20.097Z,38.87
2019-02-17T22:39:09.304Z,39.40
2019-02-17T22:41:58.705Z,48.37
2019-02-17T22:44:47.973Z,61.97
2019-02-17T22:47:37.230Z,50.63
2019-02-17T22:50:26.815Z,48.23
2019-02-17T22:53:16.218Z,44.53
2019-02-17T22:56:05.777Z,42.17
2019-02-17T22:58:55.091Z,47.43
2019-02-17T23:01:44.429Z,58.43
2019-02-17T23:04:33.861Z,65.53
2019-02-17T23:07:23.476Z,42.70
2019-02-17T23:10:15.106Z,35.23
2019-02-17T23:13:06.714Z,55.07
2019-02-17T23:15:56.085Z,57.17
2019-02-17T23:18:45.326Z,54.30
2019-02-17T23:21:35.138Z,50.10
2019-02-17T23:24:24.693Z,41.00
2019-02-17T23:27:14.390Z,42.57
2019-02-17T23:30:04.224Z,57.80
2019-02-17T23:32:53.898Z,55.83
2019-02-17T23:35:43.081Z,58.30
2019-02-17T23:38:32.450Z,57.40
2019-02-17T23:41:21.671Z,80.40
2019-02-17T23:44:11.282Z,49.17
2019-02-17T23:47:00.509Z,45.77
2019-02-17T23:49:49.860Z,46.77
2019-02-17T23:52:39.671Z,44.93
2019-02-17T23:55:29.487Z,54.57
2019-02-17T23:58:18.522Z,59.23
